DK-0035 weather

Ølgod Airfield
Vallund, South Denmark, Denmark

Public forecast

Using degrees Celsius for public forecast. Weather courtesy of forecast.io.

Closest aviation weather report (METAR) to Ølgod Airfield

Closest report is Stauning Airport, 11.5 nm (21.4 km) NW. Retrieved 2020/04/02 10:50 UTC (27 minutes ago):

EKVJ 021050Z 24018G28KT 9999 FEW009 BKN012 07/05 Q1001

Closest aviation forecast (TAF) to Ølgod Airfield

Forecast is more than 12 hours old.

Closest forecast is Esbjerg Airport, 18.5 nm (34.2 km) S. Retrieved 2015/09/18 18:00 UTC (5 years ago):

TAF EKEB 181707Z 1818/1822 24008KT 9999 SCT025 TEMPO 1818/1820 -SHRA SCT020CB